createdAt,value
2023-02-20T00:01:38.017Z,1.53
2023-02-20T00:04:05.237Z,1.73
2023-02-20T00:06:32.682Z,1.97
2023-02-20T00:08:59.848Z,2.13
2023-02-20T00:11:27.385Z,2.10
2023-02-20T00:13:54.495Z,2.40
2023-02-20T00:16:21.937Z,2.97
2023-02-20T00:18:49.111Z,1.97
2023-02-20T00:21:16.662Z,2.07
2023-02-20T00:23:43.924Z,2.20
2023-02-20T00:26:13.178Z,2.13
2023-02-20T00:28:41.734Z,2.50
2023-02-20T00:31:14.803Z,2.63
2023-02-20T00:33:42.185Z,2.60
2023-02-20T00:36:16.761Z,2.43
2023-02-20T00:38:45.892Z,2.30
2023-02-20T00:41:18.055Z,1.97
2023-02-20T00:43:45.469Z,2.87
2023-02-20T00:46:14.362Z,2.47
2023-02-20T00:48:41.961Z,3.30
2023-02-20T00:51:09.431Z,2.40
2023-02-20T00:53:36.627Z,2.07
2023-02-20T00:56:04.209Z,2.57
2023-02-20T00:58:31.335Z,2.10
2023-02-20T01:00:58.729Z,2.93
2023-02-20T01:03:25.958Z,2.67
2023-02-20T01:05:53.337Z,2.60
2023-02-20T01:08:20.458Z,2.17
2023-02-20T01:10:47.905Z,2.00
2023-02-20T01:13:15.089Z,1.73
2023-02-20T01:15:42.856Z,2.20
2023-02-20T01:18:10.067Z,2.57
2023-02-20T01:20:37.783Z,2.53
2023-02-20T01:23:04.829Z,2.80
2023-02-20T01:25:32.337Z,2.37
2023-02-20T01:27:59.492Z,2.23
2023-02-20T01:30:28.562Z,2.80
2023-02-20T01:32:55.627Z,2.90
2023-02-20T01:35:23.216Z,2.73
2023-02-20T01:37:50.344Z,2.53
2023-02-20T01:40:23.003Z,2.60
2023-02-20T01:42:50.487Z,2.40
2023-02-20T01:45:39.504Z,3.63
2023-02-20T01:48:06.777Z,3.30
2023-02-20T01:50:40.093Z,2.47
2023-02-20T01:53:20.326Z,2.67
2023-02-20T01:56:03.141Z,2.00
2023-02-20T01:58:37.254Z,2.33
2023-02-20T02:01:05.464Z,3.03
2023-02-20T02:03:37.706Z,3.00
2023-02-20T02:06:07.584Z,3.03
2023-02-20T02:08:38.115Z,2.73
2023-02-20T02:11:18.021Z,2.03
2023-02-20T02:13:45.155Z,2.17
2023-02-20T02:16:51.526Z,2.53
2023-02-20T02:19:50.494Z,2.50
2023-02-20T02:22:36.601Z,2.40
2023-02-20T02:25:09.768Z,2.50
2023-02-20T02:28:26.627Z,2.17
2023-02-20T02:30:54.086Z,2.63
2023-02-20T02:33:51.789Z,2.13
2023-02-20T02:36:33.739Z,2.13
2023-02-20T02:39:21.439Z,2.07
2023-02-20T02:42:07.378Z,2.57
2023-02-20T02:45:04.537Z,2.20
2023-02-20T02:47:44.931Z,2.50
2023-02-20T02:50:27.109Z,2.10
2023-02-20T02:52:55.562Z,2.43
2023-02-20T02:55:26.193Z,2.77
2023-02-20T02:57:53.359Z,2.57
2023-02-20T03:00:52.946Z,2.50
2023-02-20T03:03:32.155Z,2.33
2023-02-20T03:06:06.677Z,2.60
2023-02-20T03:08:50.201Z,2.57
2023-02-20T03:11:21.046Z,2.97
2023-02-20T03:14:20.987Z,2.53
2023-02-20T03:17:10.099Z,2.73
2023-02-20T03:19:48.524Z,3.07
2023-02-20T03:22:25.377Z,2.67
2023-02-20T03:24:56.884Z,3.20
2023-02-20T03:27:50.402Z,2.80
2023-02-20T03:30:27.629Z,2.83
2023-02-20T03:33:43.182Z,3.37
2023-02-20T03:36:32.350Z,3.30
2023-02-20T03:39:24.564Z,3.40
2023-02-20T03:42:12.578Z,2.90
2023-02-20T03:44:40.069Z,2.60
2023-02-20T03:47:13.339Z,2.50
2023-02-20T03:49:43.158Z,2.80
2023-02-20T03:52:11.393Z,3.43
2023-02-20T03:54:39.336Z,3.07
2023-02-20T03:57:14.630Z,3.70
2023-02-20T03:59:54.120Z,2.57
2023-02-20T04:02:27.184Z,2.90
2023-02-20T04:04:57.565Z,2.57
2023-02-20T04:07:42.896Z,3.33
2023-02-20T04:10:15.357Z,2.73
2023-02-20T04:12:45.800Z,2.13
2023-02-20T04:15:14.198Z,3.10
2023-02-20T04:17:55.335Z,2.50
2023-02-20T04:20:23.001Z,2.00
2023-02-20T04:22:52.841Z,2.60
2023-02-20T04:25:35.579Z,2.47
2023-02-20T04:28:04.455Z,2.60
2023-02-20T04:30:32.228Z,2.40
2023-02-20T04:32:59.451Z,2.20
2023-02-20T04:35:27.503Z,1.90
2023-02-20T04:37:54.669Z,2.03
2023-02-20T04:40:24.094Z,2.20
2023-02-20T04:42:51.291Z,2.13
2023-02-20T04:45:18.929Z,2.37
2023-02-20T04:47:46.913Z,2.13
2023-02-20T04:50:27.813Z,1.83
2023-02-20T04:52:55.446Z,2.30
2023-02-20T04:55:23.672Z,2.00
2023-02-20T04:57:51.079Z,1.30
2023-02-20T05:00:19.143Z,1.90
2023-02-20T05:02:46.329Z,2.07
2023-02-20T05:05:25.490Z,2.33
2023-02-20T05:08:00.610Z,1.90
2023-02-20T05:10:29.887Z,2.30
2023-02-20T05:12:57.917Z,2.13
2023-02-20T05:15:27.503Z,2.20
2023-02-20T05:17:55.081Z,1.73
2023-02-20T05:20:43.419Z,2.30
2023-02-20T05:23:10.575Z,1.90
2023-02-20T05:25:38.417Z,2.07
2023-02-20T05:28:05.622Z,2.40
2023-02-20T05:30:33.119Z,2.20
2023-02-20T05:33:01.510Z,1.93
2023-02-20T05:35:29.079Z,2.17
2023-02-20T05:37:56.241Z,1.93
2023-02-20T05:40:23.729Z,2.70
2023-02-20T05:42:50.906Z,2.50
2023-02-20T05:45:19.789Z,3.40
2023-02-20T05:47:47.068Z,3.20
2023-02-20T05:50:14.710Z,2.83
2023-02-20T05:52:42.357Z,2.93
2023-02-20T05:55:09.802Z,2.97
2023-02-20T05:57:36.960Z,2.73
2023-02-20T06:00:05.275Z,2.87
2023-02-20T06:02:34.215Z,2.33
2023-02-20T06:05:02.372Z,2.90
2023-02-20T06:07:29.571Z,2.60
2023-02-20T06:09:58.238Z,3.13
2023-02-20T06:12:26.063Z,2.07
2023-02-20T06:14:53.768Z,2.70
2023-02-20T06:17:21.087Z,2.90
2023-02-20T06:19:50.974Z,2.83
2023-02-20T06:22:18.625Z,2.63
2023-02-20T06:24:47.525Z,2.87
2023-02-20T06:27:16.572Z,3.00
2023-02-20T06:29:47.118Z,3.47
2023-02-20T06:32:16.452Z,3.17
2023-02-20T06:34:47.444Z,2.63
2023-02-20T06:37:14.683Z,2.23
2023-02-20T06:39:45.889Z,2.57
2023-02-20T06:42:13.187Z,2.13
2023-02-20T06:44:40.909Z,2.47
2023-02-20T06:47:09.497Z,2.03
2023-02-20T06:49:37.934Z,3.07
2023-02-20T06:52:06.308Z,2.47
2023-02-20T06:54:34.592Z,2.53
2023-02-20T06:57:02.774Z,2.70
2023-02-20T06:59:30.259Z,2.53
2023-02-20T07:01:57.541Z,3.00
2023-02-20T07:04:27.917Z,2.97
2023-02-20T07:06:55.674Z,2.87
2023-02-20T07:09:25.299Z,2.50
2023-02-20T07:11:53.568Z,3.30
2023-02-20T07:14:21.829Z,3.00
2023-02-20T07:16:49.015Z,2.90
2023-02-20T07:19:16.994Z,3.10
2023-02-20T07:21:46.257Z,1.97
2023-02-20T07:24:13.806Z,2.80
2023-02-20T07:26:41.061Z,2.83
2023-02-20T07:29:09.208Z,3.03
2023-02-20T07:31:36.544Z,2.40
2023-02-20T07:34:04.610Z,2.63
2023-02-20T07:36:31.872Z,2.53
2023-02-20T07:39:14.907Z,2.43
2023-02-20T07:41:47.455Z,3.20
2023-02-20T07:44:17.236Z,3.07
2023-02-20T07:46:44.813Z,3.40
2023-02-20T07:49:15.201Z,3.53
2023-02-20T07:51:42.393Z,3.27
2023-02-20T07:54:10.167Z,3.17
2023-02-20T07:56:38.740Z,3.23
2023-02-20T07:59:06.616Z,3.47
2023-02-20T08:01:33.817Z,2.80
2023-02-20T08:04:01.795Z,3.20
2023-02-20T08:06:29.171Z,2.97
2023-02-20T08:08:56.792Z,2.77
2023-02-20T08:11:25.009Z,3.13
2023-02-20T08:13:55.700Z,3.00
2023-02-20T08:16:23.649Z,3.03
2023-02-20T08:18:51.618Z,3.13
2023-02-20T08:21:19.345Z,3.53
2023-02-20T08:23:47.194Z,2.50
2023-02-20T08:26:14.809Z,3.10
2023-02-20T08:28:42.697Z,3.70
2023-02-20T08:31:13.292Z,3.60
2023-02-20T08:33:45.297Z,2.83
2023-02-20T08:36:12.836Z,2.60
2023-02-20T08:38:40.548Z,2.83
2023-02-20T08:41:10.910Z,2.97
2023-02-20T08:43:43.661Z,3.37
2023-02-20T08:46:11.229Z,3.10
2023-02-20T08:48:39.506Z,3.47
2023-02-20T08:51:07.451Z,2.87
2023-02-20T08:53:37.634Z,2.60
2023-02-20T08:56:06.789Z,3.47
2023-02-20T08:58:34.306Z,2.87
2023-02-20T09:01:01.794Z,3.83
2023-02-20T09:03:29.627Z,3.20
2023-02-20T09:05:56.816Z,3.10
2023-02-20T09:08:25.265Z,4.40
2023-02-20T09:10:52.697Z,3.50
2023-02-20T09:13:20.539Z,3.60
2023-02-20T09:15:47.715Z,3.80
2023-02-20T09:18:15.660Z,4.00
2023-02-20T09:20:43.198Z,4.73
2023-02-20T09:23:10.972Z,4.30
2023-02-20T09:25:39.266Z,4.27
2023-02-20T09:28:07.115Z,5.33
2023-02-20T09:30:34.712Z,4.50
2023-02-20T09:33:02.446Z,5.10
2023-02-20T09:35:31.054Z,4.53
2023-02-20T09:37:59.053Z,4.83
2023-02-20T09:40:29.614Z,5.70
2023-02-20T09:43:27.146Z,6.07
2023-02-20T09:46:14.480Z,6.90
2023-02-20T09:49:07.144Z,6.47
2023-02-20T09:51:38.349Z,6.47
2023-02-20T09:54:06.223Z,7.00
2023-02-20T09:56:46.382Z,7.13
2023-02-20T09:59:19.661Z,7.13
2023-02-20T10:01:56.414Z,6.47
2023-02-20T10:05:00.037Z,5.50
2023-02-20T10:07:31.007Z,6.13
2023-02-20T10:10:01.627Z,5.77
2023-02-20T10:12:38.444Z,6.40
2023-02-20T10:15:28.639Z,5.37
2023-02-20T10:18:11.049Z,6.50
2023-02-20T10:20:45.759Z,7.03
2023-02-20T10:23:16.027Z,6.27
2023-02-20T10:25:49.366Z,7.97
2023-02-20T10:28:20.510Z,6.93
2023-02-20T10:31:16.938Z,7.10
2023-02-20T10:33:49.712Z,8.30
2023-02-20T10:36:46.456Z,8.23
2023-02-20T10:39:20.173Z,7.80
2023-02-20T10:42:00.269Z,7.53
2023-02-20T10:44:51.639Z,7.73
2023-02-20T10:47:26.961Z,8.40
2023-02-20T10:50:21.284Z,7.80
2023-02-20T10:53:02.327Z,6.50
2023-02-20T10:55:47.455Z,9.30
2023-02-20T10:58:21.300Z,8.23
2023-02-20T11:00:52.854Z,7.90
2023-02-20T11:03:59.795Z,7.60
2023-02-20T11:06:38.450Z,7.00
2023-02-20T11:09:08.565Z,7.40
2023-02-20T11:11:40.285Z,7.53
2023-02-20T11:14:40.849Z,6.70
2023-02-20T11:17:19.629Z,7.40
2023-02-20T11:19:50.116Z,7.07
2023-02-20T11:22:19.534Z,6.97
2023-02-20T11:24:47.450Z,7.63
2023-02-20T11:27:21.624Z,7.80
2023-02-20T11:29:52.130Z,6.60
2023-02-20T11:32:22.782Z,5.40
2023-02-20T11:35:05.592Z,6.77
2023-02-20T11:37:37.821Z,6.53
2023-02-20T11:40:25.700Z,6.73
2023-02-20T11:42:53.034Z,7.97
2023-02-20T11:45:28.162Z,7.40
2023-02-20T11:48:07.431Z,7.47
2023-02-20T11:50:52.428Z,8.60
2023-02-20T11:53:32.976Z,7.77
2023-02-20T11:56:14.603Z,8.17
2023-02-20T11:58:43.047Z,8.10
2023-02-20T12:01:35.006Z,8.90
2023-02-20T12:04:02.326Z,7.97
2023-02-20T12:06:33.049Z,8.50
2023-02-20T12:09:08.146Z,8.37
2023-02-20T12:11:35.853Z,8.40
2023-02-20T12:14:03.526Z,8.80
2023-02-20T12:16:49.737Z,9.00
2023-02-20T12:19:55.181Z,9.40
2023-02-20T12:22:38.681Z,7.63
2023-02-20T12:25:30.990Z,7.87
2023-02-20T12:28:36.641Z,7.20
2023-02-20T12:31:19.934Z,7.40
2023-02-20T12:34:09.492Z,6.67
2023-02-20T12:36:43.708Z,6.50
2023-02-20T12:39:20.247Z,7.70
2023-02-20T12:42:00.054Z,8.13
2023-02-20T12:44:58.896Z,9.57
2023-02-20T12:47:35.240Z,9.03
2023-02-20T12:50:17.049Z,8.83
2023-02-20T12:52:56.380Z,9.03
2023-02-20T12:55:47.496Z,9.33
2023-02-20T12:58:26.394Z,8.03
2023-02-20T13:01:11.369Z,6.97
2023-02-20T13:03:48.661Z,7.33
2023-02-20T13:06:32.546Z,7.40
2023-02-20T13:09:11.852Z,7.37
2023-02-20T13:11:43.795Z,7.73
2023-02-20T13:14:14.402Z,7.67
2023-02-20T13:16:59.408Z,7.97
2023-02-20T13:19:40.031Z,7.67
2023-02-20T13:22:09.133Z,7.50
2023-02-20T13:24:38.614Z,7.53
2023-02-20T13:27:09.868Z,8.43
2023-02-20T13:29:39.706Z,9.07
2023-02-20T13:32:19.818Z,7.37
2023-02-20T13:34:47.943Z,7.77
2023-02-20T13:37:50.763Z,9.33
2023-02-20T13:40:26.976Z,9.10
2023-02-20T13:43:13.240Z,7.67
2023-02-20T13:45:43.068Z,7.13
2023-02-20T13:48:30.783Z,6.03
2023-02-20T13:51:15.894Z,6.07
2023-02-20T13:54:01.896Z,6.50
2023-02-20T13:56:47.422Z,6.30
2023-02-20T13:59:19.269Z,8.33
2023-02-20T14:02:16.059Z,8.50
2023-02-20T14:04:59.261Z,8.37
2023-02-20T14:07:45.126Z,6.10
2023-02-20T14:10:38.878Z,6.03
2023-02-20T14:13:39.462Z,5.10
2023-02-20T14:16:27.321Z,6.83
2023-02-20T14:19:01.621Z,7.10
2023-02-20T14:21:31.338Z,6.13
2023-02-20T14:24:20.819Z,6.17
2023-02-20T14:26:52.451Z,6.77
2023-02-20T14:29:33.800Z,5.53
2023-02-20T14:32:04.228Z,5.97
2023-02-20T14:34:59.908Z,5.20
2023-02-20T14:37:54.173Z,5.67
2023-02-20T14:40:44.196Z,5.50
2023-02-20T14:43:21.955Z,5.00
2023-02-20T14:46:02.625Z,5.60
2023-02-20T14:48:33.826Z,5.30
2023-02-20T14:51:14.326Z,5.80
2023-02-20T14:53:44.928Z,5.50
2023-02-20T14:56:18.575Z,5.43
2023-02-20T14:58:48.990Z,4.90
2023-02-20T15:01:19.097Z,4.90
2023-02-20T15:04:07.514Z,5.37
2023-02-20T15:06:36.927Z,5.67
2023-02-20T15:09:21.533Z,6.00
2023-02-20T15:11:52.170Z,5.07
2023-02-20T15:14:26.768Z,5.27
2023-02-20T15:17:26.949Z,5.67
2023-02-20T15:19:59.125Z,6.10
2023-02-20T15:22:31.696Z,5.53
2023-02-20T15:25:34.484Z,5.47
2023-02-20T15:28:11.909Z,5.63
2023-02-20T15:31:05.472Z,5.47
2023-02-20T15:33:42.460Z,5.70
2023-02-20T15:36:15.764Z,6.53
2023-02-20T15:38:43.115Z,5.27
2023-02-20T15:41:11.913Z,5.50
2023-02-20T15:43:49.774Z,6.37
2023-02-20T15:46:21.996Z,5.50
2023-02-20T15:48:49.696Z,5.57
2023-02-20T15:51:21.721Z,6.33
2023-02-20T15:53:51.450Z,5.77
2023-02-20T15:56:20.427Z,5.63
2023-02-20T15:58:52.562Z,5.57
2023-02-20T16:01:20.803Z,6.17
2023-02-20T16:03:52.921Z,5.03
2023-02-20T16:06:23.125Z,5.50
2023-02-20T16:08:51.127Z,4.37
2023-02-20T16:11:28.397Z,4.20
2023-02-20T16:13:58.261Z,4.80
2023-02-20T16:16:42.567Z,7.70
2023-02-20T16:19:16.249Z,6.77
2023-02-20T16:21:57.753Z,6.63
2023-02-20T16:24:26.197Z,7.80
2023-02-20T16:26:54.248Z,7.53
2023-02-20T16:29:28.130Z,6.97
2023-02-20T16:31:58.584Z,7.07
2023-02-20T16:34:28.393Z,6.70
2023-02-20T16:36:55.952Z,6.37
2023-02-20T16:39:27.503Z,5.17
2023-02-20T16:41:58.191Z,5.33
2023-02-20T16:44:44.823Z,4.47
2023-02-20T16:47:14.377Z,5.87
2023-02-20T16:49:41.860Z,5.50
2023-02-20T16:52:17.945Z,5.40
2023-02-20T16:54:47.914Z,5.77
2023-02-20T16:57:16.248Z,5.80
2023-02-20T16:59:44.074Z,6.17
2023-02-20T17:02:17.696Z,6.10
2023-02-20T17:04:45.732Z,6.40
2023-02-20T17:07:13.314Z,6.27
2023-02-20T17:09:45.138Z,7.80
2023-02-20T17:12:18.411Z,8.27
2023-02-20T17:14:46.157Z,9.27
2023-02-20T17:17:15.773Z,6.63
2023-02-20T17:19:44.744Z,5.90
2023-02-20T17:22:14.562Z,6.43
2023-02-20T17:24:43.636Z,5.50
2023-02-20T17:27:13.504Z,6.77
2023-02-20T17:29:43.030Z,7.23
2023-02-20T17:32:10.788Z,6.10
2023-02-20T17:34:39.143Z,6.30
2023-02-20T17:37:08.478Z,6.10
2023-02-20T17:39:36.277Z,6.93
2023-02-20T17:42:04.290Z,6.60
2023-02-20T17:44:32.080Z,6.97
2023-02-20T17:47:00.878Z,6.50
2023-02-20T17:49:29.390Z,5.73
2023-02-20T17:51:59.298Z,9.50
2023-02-20T17:54:28.371Z,9.53
2023-02-20T17:56:56.351Z,8.87
2023-02-20T17:59:24.367Z,8.00
2023-02-20T18:01:52.282Z,9.60
2023-02-20T18:04:21.336Z,8.53
2023-02-20T18:06:49.505Z,9.70
2023-02-20T18:09:18.431Z,9.00
2023-02-20T18:11:49.144Z,10.03
2023-02-20T18:14:20.217Z,10.57
2023-02-20T18:16:50.440Z,10.73
2023-02-20T18:19:18.456Z,9.97
2023-02-20T18:21:49.967Z,9.77
2023-02-20T18:24:25.269Z,9.63
2023-02-20T18:26:54.357Z,10.97
2023-02-20T18:29:22.687Z,9.77
2023-02-20T18:31:50.550Z,9.60
2023-02-20T18:34:19.038Z,9.77
2023-02-20T18:36:46.733Z,10.80
2023-02-20T18:39:15.183Z,10.63
2023-02-20T18:41:49.494Z,10.83
2023-02-20T18:44:16.823Z,10.40
2023-02-20T18:46:44.257Z,11.57
2023-02-20T18:49:11.587Z,10.70
2023-02-20T18:51:42.267Z,10.73
2023-02-20T18:54:19.562Z,11.13
2023-02-20T18:56:50.976Z,10.67
2023-02-20T18:59:19.458Z,10.10
2023-02-20T19:01:47.367Z,9.53
2023-02-20T19:04:15.452Z,10.53
2023-02-20T19:06:44.785Z,9.17
2023-02-20T19:09:18.910Z,9.17
2023-02-20T19:11:55.374Z,9.10
2023-02-20T19:14:24.040Z,7.83
2023-02-20T19:16:56.676Z,8.90
2023-02-20T19:19:26.047Z,11.07
2023-02-20T19:21:54.927Z,8.90
2023-02-20T19:24:23.061Z,8.70
2023-02-20T19:26:51.333Z,8.97
2023-02-20T19:29:18.904Z,9.33
2023-02-20T19:31:46.596Z,8.90
2023-02-20T19:34:14.930Z,9.13
2023-02-20T19:42:07.955Z,10.60
2023-02-20T19:44:36.176Z,11.60
2023-02-20T19:47:08.162Z,9.60
2023-02-20T19:49:36.389Z,11.83
2023-02-20T19:52:07.395Z,11.47
2023-02-20T19:54:34.517Z,10.83
2023-02-20T19:57:05.846Z,10.57
2023-02-20T19:59:34.374Z,9.20
2023-02-20T20:02:10.110Z,10.40
2023-02-20T20:04:37.499Z,9.93
2023-02-20T20:07:06.495Z,9.10
2023-02-20T20:09:37.199Z,8.60
2023-02-20T20:12:31.152Z,9.67
2023-02-20T20:14:58.425Z,10.27
2023-02-20T20:17:26.035Z,9.93
2023-02-20T20:20:01.178Z,10.53
2023-02-20T20:22:31.433Z,9.30
2023-02-20T20:25:01.865Z,10.40
2023-02-20T20:27:30.641Z,9.67
2023-02-20T20:29:58.102Z,10.17
2023-02-20T20:32:25.584Z,12.47
2023-02-20T20:34:55.597Z,12.50
2023-02-20T20:37:25.222Z,11.40
2023-02-20T20:39:53.108Z,11.23
2023-02-20T20:42:25.299Z,13.17
2023-02-20T20:45:01.900Z,11.83
2023-02-20T20:47:31.098Z,11.87
2023-02-20T20:49:59.269Z,15.43
2023-02-20T20:52:28.607Z,14.77
2023-02-20T20:54:56.642Z,13.83
2023-02-20T20:57:27.440Z,14.60
2023-02-20T20:59:56.145Z,14.33
2023-02-20T21:02:25.102Z,12.20
2023-02-20T21:04:57.858Z,13.33
2023-02-20T21:07:35.739Z,12.90
2023-02-20T21:10:02.998Z,12.03
2023-02-20T21:12:30.913Z,12.80
2023-02-20T21:14:58.166Z,11.73
2023-02-20T21:17:25.746Z,11.90
2023-02-20T21:19:53.042Z,11.73
2023-02-20T21:22:21.133Z,10.43
2023-02-20T21:24:49.353Z,10.73
2023-02-20T21:27:17.176Z,10.27
2023-02-20T21:29:45.962Z,10.80
2023-02-20T21:32:13.693Z,11.00
2023-02-20T21:34:40.977Z,9.70
2023-02-20T21:37:08.577Z,9.83
2023-02-20T21:39:35.889Z,10.37
2023-02-20T21:42:24.020Z,10.17
2023-02-20T21:44:51.340Z,8.20
2023-02-20T21:47:19.123Z,7.70
2023-02-20T21:49:48.449Z,7.43
2023-02-20T21:52:18.100Z,8.00
2023-02-20T21:54:53.764Z,9.40
2023-02-20T21:57:21.821Z,8.57
2023-02-20T21:59:48.933Z,8.07
2023-02-20T22:02:21.322Z,8.10
2023-02-20T22:04:49.348Z,8.70
2023-02-20T22:07:36.448Z,9.60
2023-02-20T22:10:22.492Z,8.43
2023-02-20T22:13:09.022Z,8.93
2023-02-20T22:15:54.873Z,8.97
2023-02-20T22:18:41.432Z,8.63
2023-02-20T22:21:27.743Z,9.87
2023-02-20T22:24:14.008Z,10.50
2023-02-20T22:27:00.022Z,11.17
2023-02-20T22:29:45.860Z,10.73
2023-02-20T22:32:32.071Z,12.43
2023-02-20T22:35:18.354Z,10.00
2023-02-20T22:38:07.612Z,9.90
2023-02-20T22:40:53.923Z,9.20
2023-02-20T22:43:39.817Z,9.80
2023-02-20T22:46:28.539Z,8.00
2023-02-20T22:49:14.068Z,7.67
2023-02-20T22:52:06.401Z,6.30
2023-02-20T22:55:04.016Z,6.33
2023-02-20T22:57:51.690Z,6.40
2023-02-20T23:00:37.965Z,5.80
2023-02-20T23:03:24.330Z,5.57
2023-02-20T23:06:19.230Z,5.60
2023-02-20T23:09:09.886Z,6.70
2023-02-20T23:11:56.895Z,5.97
2023-02-20T23:14:43.857Z,6.10
2023-02-20T23:17:36.277Z,8.50
2023-02-20T23:20:33.310Z,8.67
2023-02-20T23:23:19.984Z,8.57
2023-02-20T23:26:09.440Z,8.50
2023-02-20T23:28:55.894Z,9.23
2023-02-20T23:32:00.372Z,9.23
2023-02-20T23:34:47.877Z,7.67
2023-02-20T23:37:35.120Z,6.23
2023-02-20T23:40:27.391Z,5.90
2023-02-20T23:43:21.383Z,4.47
2023-02-20T23:46:07.258Z,4.27
2023-02-20T23:48:56.282Z,4.70
2023-02-20T23:51:42.136Z,8.30
2023-02-20T23:54:28.218Z,7.57
2023-02-20T23:57:14.057Z,6.50
